sensor_id;sensor_type;location;lat;lon;timestamp;P1;durP1;ratioP1;P2;durP2;ratioP2
25936;SDS011;13733;51.178;4.450;2022-07-23T00:00:30;8.95;;;6.20;;
25936;SDS011;13733;51.178;4.450;2022-07-23T00:02:56;9.80;;;6.47;;
25936;SDS011;13733;51.178;4.450;2022-07-23T00:05:22;8.60;;;6.18;;
25936;SDS011;13733;51.178;4.450;2022-07-23T00:07:48;11.18;;;6.60;;
25936;SDS011;13733;51.178;4.450;2022-07-23T00:10:13;6.80;;;5.85;;
25936;SDS011;13733;51.178;4.450;2022-07-23T00:12:39;10.20;;;6.20;;
25936;SDS011;13733;51.178;4.450;2022-07-23T00:15:06;9.05;;;6.13;;
25936;SDS011;13733;51.178;4.450;2022-07-23T00:17:32;10.85;;;6.40;;
25936;SDS011;13733;51.178;4.450;2022-07-23T00:19:58;7.47;;;6.30;;
25936;SDS011;13733;51.178;4.450;2022-07-23T00:22:24;10.65;;;6.45;;
25936;SDS011;13733;51.178;4.450;2022-07-23T00:24:51;9.60;;;6.32;;
25936;SDS011;13733;51.178;4.450;2022-07-23T00:27:17;8.90;;;5.97;;
25936;SDS011;13733;51.178;4.450;2022-07-23T00:29:42;11.35;;;6.63;;
25936;SDS011;13733;51.178;4.450;2022-07-23T00:32:08;8.02;;;6.90;;
25936;SDS011;13733;51.178;4.450;2022-07-23T00:34:34;12.65;;;7.00;;
25936;SDS011;13733;51.178;4.450;2022-07-23T00:36:59;7.97;;;6.22;;
25936;SDS011;13733;51.178;4.450;2022-07-23T00:39:25;8.25;;;6.80;;
25936;SDS011;13733;51.178;4.450;2022-07-23T00:41:51;8.75;;;6.22;;
25936;SDS011;13733;51.178;4.450;2022-07-23T00:44:24;11.27;;;6.75;;
25936;SDS011;13733;51.178;4.450;2022-07-23T00:46:52;10.57;;;5.60;;
25936;SDS011;13733;51.178;4.450;2022-07-23T00:49:20;8.02;;;5.97;;
25936;SDS011;13733;51.178;4.450;2022-07-23T00:51:47;10.60;;;6.63;;
25936;SDS011;13733;51.178;4.450;2022-07-23T00:54:14;8.10;;;6.50;;
25936;SDS011;13733;51.178;4.450;2022-07-23T00:56:44;9.45;;;6.53;;
25936;SDS011;13733;51.178;4.450;2022-07-23T00:59:10;8.07;;;6.10;;
25936;SDS011;13733;51.178;4.450;2022-07-23T01:01:36;10.13;;;6.75;;
25936;SDS011;13733;51.178;4.450;2022-07-23T01:04:02;9.15;;;6.60;;
25936;SDS011;13733;51.178;4.450;2022-07-23T01:06:28;11.00;;;6.25;;
25936;SDS011;13733;51.178;4.450;2022-07-23T01:08:55;7.70;;;5.95;;
25936;SDS011;13733;51.178;4.450;2022-07-23T01:11:22;8.43;;;6.18;;
25936;SDS011;13733;51.178;4.450;2022-07-23T01:13:49;13.65;;;6.70;;
25936;SDS011;13733;51.178;4.450;2022-07-23T01:16:15;8.32;;;7.18;;
25936;SDS011;13733;51.178;4.450;2022-07-23T01:18:41;9.95;;;6.40;;
25936;SDS011;13733;51.178;4.450;2022-07-23T01:21:08;9.23;;;7.10;;
25936;SDS011;13733;51.178;4.450;2022-07-23T01:23:38;9.23;;;6.97;;
25936;SDS011;13733;51.178;4.450;2022-07-23T01:26:04;11.70;;;6.80;;
25936;SDS011;13733;51.178;4.450;2022-07-23T01:28:30;12.38;;;7.43;;
25936;SDS011;13733;51.178;4.450;2022-07-23T01:30:57;9.98;;;7.38;;
25936;SDS011;13733;51.178;4.450;2022-07-23T01:33:24;8.45;;;7.18;;
25936;SDS011;13733;51.178;4.450;2022-07-23T01:35:50;10.15;;;7.38;;
25936;SDS011;13733;51.178;4.450;2022-07-23T01:38:20;12.75;;;7.32;;
25936;SDS011;13733;51.178;4.450;2022-07-23T01:40:46;9.48;;;7.15;;
25936;SDS011;13733;51.178;4.450;2022-07-23T01:43:12;16.83;;;7.97;;
25936;SDS011;13733;51.178;4.450;2022-07-23T01:45:38;10.98;;;6.93;;
25936;SDS011;13733;51.178;4.450;2022-07-23T01:48:03;12.65;;;7.30;;
25936;SDS011;13733;51.178;4.450;2022-07-23T01:50:31;9.60;;;6.90;;
25936;SDS011;13733;51.178;4.450;2022-07-23T01:53:19;10.68;;;7.50;;
25936;SDS011;13733;51.178;4.450;2022-07-23T01:55:45;10.48;;;7.07;;
25936;SDS011;13733;51.178;4.450;2022-07-23T01:58:12;10.02;;;6.95;;
25936;SDS011;13733;51.178;4.450;2022-07-23T02:00:39;17.48;;;7.90;;
25936;SDS011;13733;51.178;4.450;2022-07-23T02:03:04;13.70;;;7.85;;
25936;SDS011;13733;51.178;4.450;2022-07-23T02:05:30;12.20;;;7.53;;
25936;SDS011;13733;51.178;4.450;2022-07-23T02:07:58;10.85;;;7.60;;
25936;SDS011;13733;51.178;4.450;2022-07-23T02:10:25;13.98;;;7.53;;
25936;SDS011;13733;51.178;4.450;2022-07-23T02:12:51;11.20;;;7.60;;
25936;SDS011;13733;51.178;4.450;2022-07-23T02:15:17;12.15;;;7.40;;
25936;SDS011;13733;51.178;4.450;2022-07-23T02:17:42;13.50;;;7.72;;
25936;SDS011;13733;51.178;4.450;2022-07-23T02:20:08;11.40;;;7.25;;
25936;SDS011;13733;51.178;4.450;2022-07-23T02:22:35;10.75;;;7.30;;
25936;SDS011;13733;51.178;4.450;2022-07-23T02:25:02;11.18;;;7.93;;
25936;SDS011;13733;51.178;4.450;2022-07-23T02:27:29;9.95;;;7.65;;
25936;SDS011;13733;51.178;4.450;2022-07-23T02:29:55;12.07;;;8.32;;
25936;SDS011;13733;51.178;4.450;2022-07-23T02:32:22;10.52;;;8.35;;
25936;SDS011;13733;51.178;4.450;2022-07-23T02:34:48;9.43;;;8.43;;
25936;SDS011;13733;51.178;4.450;2022-07-23T02:37:16;10.55;;;8.40;;
25936;SDS011;13733;51.178;4.450;2022-07-23T02:39:42;17.17;;;7.97;;
25936;SDS011;13733;51.178;4.450;2022-07-23T02:42:07;13.90;;;8.70;;
25936;SDS011;13733;51.178;4.450;2022-07-23T02:44:34;9.95;;;7.90;;
25936;SDS011;13733;51.178;4.450;2022-07-23T02:47:00;15.55;;;8.25;;
25936;SDS011;13733;51.178;4.450;2022-07-23T02:49:26;12.15;;;8.25;;
25936;SDS011;13733;51.178;4.450;2022-07-23T02:51:52;10.80;;;8.43;;
25936;SDS011;13733;51.178;4.450;2022-07-23T02:54:18;13.10;;;8.07;;
25936;SDS011;13733;51.178;4.450;2022-07-23T02:56:43;12.65;;;8.43;;
25936;SDS011;13733;51.178;4.450;2022-07-23T02:59:12;10.73;;;8.80;;
25936;SDS011;13733;51.178;4.450;2022-07-23T03:01:38;10.50;;;7.95;;
25936;SDS011;13733;51.178;4.450;2022-07-23T03:04:05;11.18;;;7.47;;
25936;SDS011;13733;51.178;4.450;2022-07-23T03:06:31;11.73;;;8.50;;
25936;SDS011;13733;51.178;4.450;2022-07-23T03:08:57;10.25;;;7.80;;
25936;SDS011;13733;51.178;4.450;2022-07-23T03:11:22;12.57;;;7.70;;
25936;SDS011;13733;51.178;4.450;2022-07-23T03:13:48;12.43;;;8.18;;
25936;SDS011;13733;51.178;4.450;2022-07-23T03:16:14;10.63;;;8.18;;
25936;SDS011;13733;51.178;4.450;2022-07-23T03:18:39;10.30;;;8.48;;
25936;SDS011;13733;51.178;4.450;2022-07-23T03:21:06;15.35;;;9.25;;
25936;SDS011;13733;51.178;4.450;2022-07-23T03:23:32;15.43;;;9.63;;
25936;SDS011;13733;51.178;4.450;2022-07-23T03:25:58;12.45;;;8.05;;
25936;SDS011;13733;51.178;4.450;2022-07-23T03:28:23;11.75;;;8.40;;
25936;SDS011;13733;51.178;4.450;2022-07-23T03:30:49;10.63;;;8.00;;
25936;SDS011;13733;51.178;4.450;2022-07-23T03:33:17;11.95;;;8.25;;
25936;SDS011;13733;51.178;4.450;2022-07-23T03:35:44;12.20;;;8.05;;
25936;SDS011;13733;51.178;4.450;2022-07-23T03:38:19;11.63;;;7.88;;
25936;SDS011;13733;51.178;4.450;2022-07-23T03:40:45;9.98;;;7.55;;
25936;SDS011;13733;51.178;4.450;2022-07-23T03:43:10;10.32;;;7.65;;
25936;SDS011;13733;51.178;4.450;2022-07-23T03:45:36;11.10;;;8.43;;
25936;SDS011;13733;51.178;4.450;2022-07-23T03:48:03;10.93;;;7.45;;
25936;SDS011;13733;51.178;4.450;2022-07-23T03:50:29;13.00;;;8.15;;
25936;SDS011;13733;51.178;4.450;2022-07-23T03:52:55;10.60;;;7.65;;
25936;SDS011;13733;51.178;4.450;2022-07-23T03:55:21;12.65;;;8.32;;
25936;SDS011;13733;51.178;4.450;2022-07-23T03:57:47;10.70;;;7.80;;
25936;SDS011;13733;51.178;4.450;2022-07-23T04:00:13;10.35;;;7.75;;
25936;SDS011;13733;51.178;4.450;2022-07-23T04:02:40;12.90;;;7.97;;
25936;SDS011;13733;51.178;4.450;2022-07-23T04:05:08;10.80;;;7.80;;
25936;SDS011;13733;51.178;4.450;2022-07-23T04:07:34;12.30;;;8.15;;
25936;SDS011;13733;51.178;4.450;2022-07-23T04:10:01;9.23;;;7.45;;
25936;SDS011;13733;51.178;4.450;2022-07-23T04:12:27;10.38;;;8.40;;
25936;SDS011;13733;51.178;4.450;2022-07-23T04:14:53;11.48;;;7.53;;
25936;SDS011;13733;51.178;4.450;2022-07-23T04:17:20;10.07;;;7.90;;
25936;SDS011;13733;51.178;4.450;2022-07-23T04:19:46;11.70;;;8.23;;
25936;SDS011;13733;51.178;4.450;2022-07-23T04:22:15;13.60;;;8.80;;
25936;SDS011;13733;51.178;4.450;2022-07-23T04:24:41;10.93;;;8.60;;
25936;SDS011;13733;51.178;4.450;2022-07-23T04:27:08;12.18;;;9.55;;
25936;SDS011;13733;51.178;4.450;2022-07-23T04:29:33;13.00;;;8.02;;
25936;SDS011;13733;51.178;4.450;2022-07-23T04:31:59;10.20;;;8.32;;
25936;SDS011;13733;51.178;4.450;2022-07-23T04:34:25;12.27;;;9.00;;
25936;SDS011;13733;51.178;4.450;2022-07-23T04:36:52;11.63;;;9.00;;
25936;SDS011;13733;51.178;4.450;2022-07-23T04:39:19;17.48;;;8.55;;
25936;SDS011;13733;51.178;4.450;2022-07-23T04:41:45;11.48;;;8.52;;
25936;SDS011;13733;51.178;4.450;2022-07-23T04:44:12;11.00;;;8.32;;
25936;SDS011;13733;51.178;4.450;2022-07-23T04:46:38;8.95;;;8.05;;
25936;SDS011;13733;51.178;4.450;2022-07-23T04:49:05;12.43;;;8.25;;
25936;SDS011;13733;51.178;4.450;2022-07-23T04:51:32;10.32;;;8.57;;
25936;SDS011;13733;51.178;4.450;2022-07-23T04:53:58;11.15;;;8.32;;
25936;SDS011;13733;51.178;4.450;2022-07-23T04:56:24;14.05;;;8.80;;
25936;SDS011;13733;51.178;4.450;2022-07-23T04:58:50;11.13;;;8.40;;
25936;SDS011;13733;51.178;4.450;2022-07-23T05:01:16;11.15;;;8.30;;
25936;SDS011;13733;51.178;4.450;2022-07-23T05:03:41;11.38;;;8.43;;
25936;SDS011;13733;51.178;4.450;2022-07-23T05:06:08;9.88;;;8.02;;
25936;SDS011;13733;51.178;4.450;2022-07-23T05:08:35;14.00;;;8.68;;
25936;SDS011;13733;51.178;4.450;2022-07-23T05:11:00;10.05;;;7.85;;
25936;SDS011;13733;51.178;4.450;2022-07-23T05:13:27;9.80;;;8.10;;
25936;SDS011;13733;51.178;4.450;2022-07-23T05:15:53;13.93;;;8.70;;
25936;SDS011;13733;51.178;4.450;2022-07-23T05:18:20;13.27;;;8.48;;
25936;SDS011;13733;51.178;4.450;2022-07-23T05:20:46;12.65;;;7.57;;
25936;SDS011;13733;51.178;4.450;2022-07-23T05:23:16;10.73;;;8.73;;
25936;SDS011;13733;51.178;4.450;2022-07-23T05:25:41;9.20;;;8.00;;
25936;SDS011;13733;51.178;4.450;2022-07-23T05:28:08;10.52;;;7.95;;
25936;SDS011;13733;51.178;4.450;2022-07-23T05:30:34;10.25;;;8.20;;
25936;SDS011;13733;51.178;4.450;2022-07-23T05:33:03;10.68;;;8.02;;
25936;SDS011;13733;51.178;4.450;2022-07-23T05:35:29;9.60;;;7.80;;
25936;SDS011;13733;51.178;4.450;2022-07-23T05:38:15;11.75;;;8.57;;
25936;SDS011;13733;51.178;4.450;2022-07-23T05:40:41;10.05;;;7.72;;
25936;SDS011;13733;51.178;4.450;2022-07-23T05:43:07;11.85;;;8.52;;
25936;SDS011;13733;51.178;4.450;2022-07-23T05:45:33;11.82;;;8.25;;
25936;SDS011;13733;51.178;4.450;2022-07-23T05:48:00;9.52;;;8.52;;
25936;SDS011;13733;51.178;4.450;2022-07-23T05:50:32;10.43;;;7.68;;
25936;SDS011;13733;51.178;4.450;2022-07-23T05:53:05;11.82;;;8.27;;
25936;SDS011;13733;51.178;4.450;2022-07-23T05:55:49;9.55;;;7.47;;
25936;SDS011;13733;51.178;4.450;2022-07-23T05:58:15;10.48;;;8.05;;
25936;SDS011;13733;51.178;4.450;2022-07-23T06:00:40;9.32;;;7.53;;
25936;SDS011;13733;51.178;4.450;2022-07-23T06:03:06;10.40;;;7.93;;
25936;SDS011;13733;51.178;4.450;2022-07-23T06:05:32;10.35;;;7.80;;
25936;SDS011;13733;51.178;4.450;2022-07-23T06:07:58;8.82;;;7.90;;
25936;SDS011;13733;51.178;4.450;2022-07-23T06:10:24;12.88;;;8.10;;
25936;SDS011;13733;51.178;4.450;2022-07-23T06:12:50;9.27;;;7.07;;
25936;SDS011;13733;51.178;4.450;2022-07-23T06:15:17;15.32;;;8.13;;
25936;SDS011;13733;51.178;4.450;2022-07-23T06:17:42;12.60;;;7.30;;
25936;SDS011;13733;51.178;4.450;2022-07-23T06:20:09;10.45;;;7.25;;
25936;SDS011;13733;51.178;4.450;2022-07-23T06:22:38;13.65;;;7.10;;
25936;SDS011;13733;51.178;4.450;2022-07-23T06:25:04;11.77;;;7.47;;
25936;SDS011;13733;51.178;4.450;2022-07-23T06:27:30;9.60;;;7.15;;
25936;SDS011;13733;51.178;4.450;2022-07-23T06:29:56;11.82;;;7.43;;
25936;SDS011;13733;51.178;4.450;2022-07-23T06:32:22;10.18;;;7.93;;
25936;SDS011;13733;51.178;4.450;2022-07-23T06:34:48;8.45;;;6.95;;
25936;SDS011;13733;51.178;4.450;2022-07-23T06:37:13;12.10;;;7.07;;
25936;SDS011;13733;51.178;4.450;2022-07-23T06:39:39;11.85;;;7.57;;
25936;SDS011;13733;51.178;4.450;2022-07-23T06:42:05;8.88;;;6.60;;
25936;SDS011;13733;51.178;4.450;2022-07-23T06:44:57;9.65;;;6.50;;
25936;SDS011;13733;51.178;4.450;2022-07-23T06:47:23;6.97;;;6.25;;
25936;SDS011;13733;51.178;4.450;2022-07-23T06:49:49;7.50;;;5.85;;
25936;SDS011;13733;51.178;4.450;2022-07-23T06:52:16;10.50;;;6.25;;
25936;SDS011;13733;51.178;4.450;2022-07-23T06:54:42;7.43;;;5.50;;
25936;SDS011;13733;51.178;4.450;2022-07-23T06:57:08;9.10;;;6.22;;
25936;SDS011;13733;51.178;4.450;2022-07-23T06:59:33;10.73;;;6.15;;
25936;SDS011;13733;51.178;4.450;2022-07-23T07:02:01;8.48;;;5.90;;
25936;SDS011;13733;51.178;4.450;2022-07-23T07:04:27;8.55;;;6.25;;
25936;SDS011;13733;51.178;4.450;2022-07-23T07:06:53;7.93;;;5.78;;
25936;SDS011;13733;51.178;4.450;2022-07-23T07:09:18;9.15;;;5.55;;
25936;SDS011;13733;51.178;4.450;2022-07-23T07:11:44;8.70;;;4.72;;
25936;SDS011;13733;51.178;4.450;2022-07-23T07:14:10;7.50;;;5.90;;
25936;SDS011;13733;51.178;4.450;2022-07-23T07:16:36;10.93;;;5.50;;
25936;SDS011;13733;51.178;4.450;2022-07-23T07:19:01;14.63;;;6.53;;
25936;SDS011;13733;51.178;4.450;2022-07-23T07:21:28;12.18;;;6.38;;
25936;SDS011;13733;51.178;4.450;2022-07-23T07:23:54;10.65;;;6.35;;
25936;SDS011;13733;51.178;4.450;2022-07-23T07:26:20;10.88;;;5.72;;
25936;SDS011;13733;51.178;4.450;2022-07-23T07:28:45;12.20;;;5.63;;
25936;SDS011;13733;51.178;4.450;2022-07-23T07:31:11;10.90;;;6.00;;
25936;SDS011;13733;51.178;4.450;2022-07-23T07:33:38;8.48;;;5.75;;
25936;SDS011;13733;51.178;4.450;2022-07-23T07:36:04;7.05;;;5.82;;
25936;SDS011;13733;51.178;4.450;2022-07-23T07:38:30;8.00;;;4.93;;
25936;SDS011;13733;51.178;4.450;2022-07-23T07:40:56;6.97;;;5.28;;
25936;SDS011;13733;51.178;4.450;2022-07-23T07:43:22;7.13;;;5.43;;
25936;SDS011;13733;51.178;4.450;2022-07-23T07:45:48;9.63;;;5.32;;
25936;SDS011;13733;51.178;4.450;2022-07-23T07:48:13;8.07;;;5.40;;
25936;SDS011;13733;51.178;4.450;2022-07-23T07:50:39;9.63;;;5.53;;
25936;SDS011;13733;51.178;4.450;2022-07-23T07:53:05;10.27;;;6.43;;
25936;SDS011;13733;51.178;4.450;2022-07-23T07:55:31;6.28;;;5.30;;
25936;SDS011;13733;51.178;4.450;2022-07-23T07:57:57;11.35;;;6.30;;
25936;SDS011;13733;51.178;4.450;2022-07-23T08:00:23;9.48;;;5.20;;
25936;SDS011;13733;51.178;4.450;2022-07-23T08:02:50;11.88;;;5.60;;
25936;SDS011;13733;51.178;4.450;2022-07-23T08:05:21;11.75;;;5.75;;
25936;SDS011;13733;51.178;4.450;2022-07-23T08:07:48;11.80;;;5.80;;
25936;SDS011;13733;51.178;4.450;2022-07-23T08:10:14;8.68;;;5.55;;
25936;SDS011;13733;51.178;4.450;2022-07-23T08:12:42;6.80;;;5.70;;
25936;SDS011;13733;51.178;4.450;2022-07-23T08:15:10;15.25;;;5.80;;
25936;SDS011;13733;51.178;4.450;2022-07-23T08:17:37;10.18;;;5.28;;
25936;SDS011;13733;51.178;4.450;2022-07-23T08:20:04;8.70;;;5.28;;
25936;SDS011;13733;51.178;4.450;2022-07-23T08:25:24;8.50;;;5.95;;
25936;SDS011;13733;51.178;4.450;2022-07-23T08:27:52;9.75;;;6.53;;
25936;SDS011;13733;51.178;4.450;2022-07-23T08:30:18;11.93;;;5.80;;
25936;SDS011;13733;51.178;4.450;2022-07-23T08:32:55;9.20;;;5.55;;
25936;SDS011;13733;51.178;4.450;2022-07-23T08:35:24;8.55;;;5.90;;
25936;SDS011;13733;51.178;4.450;2022-07-23T08:37:51;6.82;;;4.72;;
25936;SDS011;13733;51.178;4.450;2022-07-23T08:40:17;8.75;;;5.43;;
25936;SDS011;13733;51.178;4.450;2022-07-23T08:42:43;15.77;;;7.50;;
25936;SDS011;13733;51.178;4.450;2022-07-23T08:45:12;7.70;;;6.15;;
25936;SDS011;13733;51.178;4.450;2022-07-23T08:47:40;8.65;;;4.60;;
25936;SDS011;13733;51.178;4.450;2022-07-23T08:50:06;6.82;;;3.92;;
25936;SDS011;13733;51.178;4.450;2022-07-23T08:52:34;6.75;;;4.60;;
25936;SDS011;13733;51.178;4.450;2022-07-23T08:55:02;8.13;;;4.72;;
25936;SDS011;13733;51.178;4.450;2022-07-23T08:57:28;4.13;;;3.50;;
25936;SDS011;13733;51.178;4.450;2022-07-23T08:59:54;9.52;;;4.03;;
25936;SDS011;13733;51.178;4.450;2022-07-23T09:02:20;5.72;;;3.90;;
25936;SDS011;13733;51.178;4.450;2022-07-23T09:04:45;6.55;;;3.22;;
25936;SDS011;13733;51.178;4.450;2022-07-23T09:07:11;4.72;;;3.00;;
25936;SDS011;13733;51.178;4.450;2022-07-23T09:09:37;5.97;;;2.90;;
25936;SDS011;13733;51.178;4.450;2022-07-23T09:12:03;5.07;;;3.58;;
25936;SDS011;13733;51.178;4.450;2022-07-23T09:14:37;3.08;;;2.30;;
25936;SDS011;13733;51.178;4.450;2022-07-23T09:17:08;7.40;;;2.40;;
25936;SDS011;13733;51.178;4.450;2022-07-23T09:19:42;4.75;;;2.38;;
25936;SDS011;13733;51.178;4.450;2022-07-23T09:22:22;7.97;;;3.95;;
25936;SDS011;13733;51.178;4.450;2022-07-23T09:27:49;6.75;;;3.80;;
25936;SDS011;13733;51.178;4.450;2022-07-23T09:30:18;4.35;;;3.35;;
25936;SDS011;13733;51.178;4.450;2022-07-23T09:32:44;7.90;;;4.28;;
25936;SDS011;13733;51.178;4.450;2022-07-23T09:35:51;6.18;;;3.65;;
25936;SDS011;13733;51.178;4.450;2022-07-23T09:38:17;6.35;;;3.25;;
25936;SDS011;13733;51.178;4.450;2022-07-23T09:40:44;4.68;;;3.70;;
25936;SDS011;13733;51.178;4.450;2022-07-23T09:43:11;8.20;;;4.32;;
25936;SDS011;13733;51.178;4.450;2022-07-23T09:45:37;3.90;;;3.50;;
25936;SDS011;13733;51.178;4.450;2022-07-23T09:50:36;9.38;;;4.43;;
25936;SDS011;13733;51.178;4.450;2022-07-23T09:53:02;6.18;;;3.55;;
25936;SDS011;13733;51.178;4.450;2022-07-23T09:55:31;5.95;;;3.92;;
25936;SDS011;13733;51.178;4.450;2022-07-23T09:58:03;6.30;;;4.28;;
25936;SDS011;13733;51.178;4.450;2022-07-23T10:00:30;8.88;;;3.60;;
25936;SDS011;13733;51.178;4.450;2022-07-23T10:02:57;6.90;;;3.80;;
25936;SDS011;13733;51.178;4.450;2022-07-23T10:05:27;6.18;;;3.33;;
25936;SDS011;13733;51.178;4.450;2022-07-23T10:08:26;4.90;;;2.80;;
25936;SDS011;13733;51.178;4.450;2022-07-23T10:11:31;4.78;;;2.67;;
25936;SDS011;13733;51.178;4.450;2022-07-23T10:14:11;3.67;;;3.08;;
25936;SDS011;13733;51.178;4.450;2022-07-23T10:16:57;5.88;;;2.90;;
25936;SDS011;13733;51.178;4.450;2022-07-23T10:19:23;3.25;;;2.28;;
25936;SDS011;13733;51.178;4.450;2022-07-23T10:21:52;6.95;;;2.95;;
25936;SDS011;13733;51.178;4.450;2022-07-23T10:27:02;8.75;;;2.80;;
25936;SDS011;13733;51.178;4.450;2022-07-23T10:30:06;7.45;;;2.53;;
25936;SDS011;13733;51.178;4.450;2022-07-23T10:32:45;3.67;;;2.20;;
25936;SDS011;13733;51.178;4.450;2022-07-23T10:35:48;4.80;;;2.22;;
25936;SDS011;13733;51.178;4.450;2022-07-23T10:40:56;4.10;;;2.85;;
25936;SDS011;13733;51.178;4.450;2022-07-23T10:43:26;4.93;;;2.47;;
25936;SDS011;13733;51.178;4.450;2022-07-23T10:45:53;3.72;;;2.50;;
25936;SDS011;13733;51.178;4.450;2022-07-23T10:48:23;4.18;;;2.10;;
25936;SDS011;13733;51.178;4.450;2022-07-23T10:51:08;4.65;;;2.88;;
25936;SDS011;13733;51.178;4.450;2022-07-23T10:56:47;4.93;;;1.98;;
25936;SDS011;13733;51.178;4.450;2022-07-23T10:59:24;2.58;;;1.85;;
25936;SDS011;13733;51.178;4.450;2022-07-23T11:01:50;4.28;;;2.05;;
25936;SDS011;13733;51.178;4.450;2022-07-23T11:04:16;4.30;;;2.15;;
25936;SDS011;13733;51.178;4.450;2022-07-23T11:14:59;4.18;;;1.73;;
25936;SDS011;13733;51.178;4.450;2022-07-23T11:17:26;2.47;;;1.48;;
25936;SDS011;13733;51.178;4.450;2022-07-23T11:25:10;1.70;;;1.20;;
25936;SDS011;13733;51.178;4.450;2022-07-23T11:27:40;3.53;;;1.70;;
25936;SDS011;13733;51.178;4.450;2022-07-23T11:33:15;3.83;;;1.45;;
25936;SDS011;13733;51.178;4.450;2022-07-23T11:35:40;2.58;;;1.65;;
25936;SDS011;13733;51.178;4.450;2022-07-23T11:38:20;2.08;;;1.60;;
25936;SDS011;13733;51.178;4.450;2022-07-23T11:40:48;3.15;;;1.42;;
25936;SDS011;13733;51.178;4.450;2022-07-23T11:43:16;5.20;;;1.60;;
25936;SDS011;13733;51.178;4.450;2022-07-23T11:45:44;2.50;;;1.60;;
25936;SDS011;13733;51.178;4.450;2022-07-23T11:50:49;2.38;;;1.33;;
25936;SDS011;13733;51.178;4.450;2022-07-23T11:53:23;3.95;;;1.45;;
25936;SDS011;13733;51.178;4.450;2022-07-23T11:55:53;6.10;;;1.63;;
25936;SDS011;13733;51.178;4.450;2022-07-23T11:58:22;2.90;;;1.55;;
25936;SDS011;13733;51.178;4.450;2022-07-23T12:00:48;2.65;;;1.50;;
25936;SDS011;13733;51.178;4.450;2022-07-23T12:03:16;2.00;;;1.52;;
25936;SDS011;13733;51.178;4.450;2022-07-23T12:05:41;2.15;;;1.50;;
25936;SDS011;13733;51.178;4.450;2022-07-23T12:08:08;3.08;;;1.50;;
25936;SDS011;13733;51.178;4.450;2022-07-23T12:10:44;3.42;;;1.70;;
25936;SDS011;13733;51.178;4.450;2022-07-23T12:13:13;1.73;;;1.50;;
25936;SDS011;13733;51.178;4.450;2022-07-23T12:15:42;4.43;;;2.10;;
25936;SDS011;13733;51.178;4.450;2022-07-23T12:18:31;3.03;;;1.93;;
25936;SDS011;13733;51.178;4.450;2022-07-23T12:20:57;1.90;;;1.63;;
25936;SDS011;13733;51.178;4.450;2022-07-23T12:23:28;3.40;;;1.70;;
25936;SDS011;13733;51.178;4.450;2022-07-23T12:25:54;2.53;;;1.65;;
25936;SDS011;13733;51.178;4.450;2022-07-23T12:30:56;3.63;;;2.28;;
25936;SDS011;13733;51.178;4.450;2022-07-23T12:33:37;2.40;;;1.98;;
25936;SDS011;13733;51.178;4.450;2022-07-23T12:36:05;4.35;;;1.83;;
25936;SDS011;13733;51.178;4.450;2022-07-23T12:38:39;2.13;;;1.93;;
25936;SDS011;13733;51.178;4.450;2022-07-23T12:41:07;2.58;;;1.80;;
25936;SDS011;13733;51.178;4.450;2022-07-23T12:43:36;4.38;;;1.70;;
25936;SDS011;13733;51.178;4.450;2022-07-23T12:48:36;2.72;;;1.80;;
25936;SDS011;13733;51.178;4.450;2022-07-23T12:51:19;3.67;;;1.90;;
25936;SDS011;13733;51.178;4.450;2022-07-23T12:53:45;2.35;;;1.95;;
25936;SDS011;13733;51.178;4.450;2022-07-23T12:56:22;2.47;;;1.88;;
25936;SDS011;13733;51.178;4.450;2022-07-23T12:58:59;2.03;;;1.80;;
25936;SDS011;13733;51.178;4.450;2022-07-23T13:01:36;4.88;;;1.92;;
25936;SDS011;13733;51.178;4.450;2022-07-23T13:06:36;3.10;;;2.00;;
25936;SDS011;13733;51.178;4.450;2022-07-23T13:09:09;3.20;;;2.40;;
25936;SDS011;13733;51.178;4.450;2022-07-23T13:11:38;3.85;;;1.98;;
25936;SDS011;13733;51.178;4.450;2022-07-23T13:14:04;3.58;;;1.83;;
25936;SDS011;13733;51.178;4.450;2022-07-23T13:16:30;4.15;;;2.33;;
25936;SDS011;13733;51.178;4.450;2022-07-23T13:18:59;3.20;;;1.98;;
25936;SDS011;13733;51.178;4.450;2022-07-23T13:21:25;4.32;;;2.10;;
25936;SDS011;13733;51.178;4.450;2022-07-23T13:23:52;2.75;;;2.10;;
25936;SDS011;13733;51.178;4.450;2022-07-23T13:26:18;3.42;;;1.95;;
25936;SDS011;13733;51.178;4.450;2022-07-23T13:28:44;4.10;;;2.08;;
25936;SDS011;13733;51.178;4.450;2022-07-23T13:31:10;2.60;;;2.10;;
25936;SDS011;13733;51.178;4.450;2022-07-23T13:33:36;4.03;;;2.35;;
25936;SDS011;13733;51.178;4.450;2022-07-23T13:36:02;4.32;;;2.40;;
25936;SDS011;13733;51.178;4.450;2022-07-23T13:38:28;3.35;;;2.17;;
25936;SDS011;13733;51.178;4.450;2022-07-23T13:40:55;4.95;;;2.30;;
25936;SDS011;13733;51.178;4.450;2022-07-23T13:43:21;3.75;;;2.25;;
25936;SDS011;13733;51.178;4.450;2022-07-23T13:45:50;4.45;;;2.13;;
25936;SDS011;13733;51.178;4.450;2022-07-23T13:48:17;3.72;;;2.45;;
25936;SDS011;13733;51.178;4.450;2022-07-23T13:50:45;3.35;;;2.60;;
25936;SDS011;13733;51.178;4.450;2022-07-23T13:53:15;5.80;;;2.15;;
25936;SDS011;13733;51.178;4.450;2022-07-23T13:55:43;2.72;;;2.10;;
25936;SDS011;13733;51.178;4.450;2022-07-23T13:58:09;4.72;;;2.10;;
25936;SDS011;13733;51.178;4.450;2022-07-23T14:00:40;2.83;;;2.35;;
25936;SDS011;13733;51.178;4.450;2022-07-23T14:03:08;3.67;;;2.17;;
25936;SDS011;13733;51.178;4.450;2022-07-23T14:05:33;4.90;;;2.17;;
25936;SDS011;13733;51.178;4.450;2022-07-23T14:07:59;2.67;;;2.13;;
25936;SDS011;13733;51.178;4.450;2022-07-23T14:10:25;5.20;;;2.20;;
25936;SDS011;13733;51.178;4.450;2022-07-23T14:12:51;3.25;;;1.98;;
25936;SDS011;13733;51.178;4.450;2022-07-23T14:15:21;3.15;;;2.10;;
25936;SDS011;13733;51.178;4.450;2022-07-23T14:17:47;5.40;;;2.20;;
25936;SDS011;13733;51.178;4.450;2022-07-23T14:20:13;4.10;;;2.30;;
25936;SDS011;13733;51.178;4.450;2022-07-23T14:22:39;5.68;;;2.53;;
25936;SDS011;13733;51.178;4.450;2022-07-23T14:25:06;4.05;;;2.53;;
25936;SDS011;13733;51.178;4.450;2022-07-23T14:27:33;3.95;;;2.55;;
25936;SDS011;13733;51.178;4.450;2022-07-23T14:30:00;4.80;;;2.38;;
25936;SDS011;13733;51.178;4.450;2022-07-23T14:32:26;4.28;;;2.47;;
25936;SDS011;13733;51.178;4.450;2022-07-23T14:34:52;4.95;;;2.67;;
25936;SDS011;13733;51.178;4.450;2022-07-23T14:37:18;4.00;;;3.10;;
25936;SDS011;13733;51.178;4.450;2022-07-23T14:39:44;5.57;;;2.78;;
25936;SDS011;13733;51.178;4.450;2022-07-23T14:42:10;7.43;;;2.83;;
25936;SDS011;13733;51.178;4.450;2022-07-23T14:44:37;4.38;;;3.00;;
25936;SDS011;13733;51.178;4.450;2022-07-23T14:47:03;3.22;;;2.30;;
25936;SDS011;13733;51.178;4.450;2022-07-23T14:49:33;6.88;;;2.65;;
25936;SDS011;13733;51.178;4.450;2022-07-23T14:51:59;4.88;;;2.83;;
25936;SDS011;13733;51.178;4.450;2022-07-23T14:54:25;4.72;;;3.50;;
25936;SDS011;13733;51.178;4.450;2022-07-23T14:56:52;6.38;;;2.92;;
25936;SDS011;13733;51.178;4.450;2022-07-23T15:01:48;4.70;;;2.50;;
25936;SDS011;13733;51.178;4.450;2022-07-23T15:04:14;4.63;;;2.78;;
25936;SDS011;13733;51.178;4.450;2022-07-23T15:06:40;3.35;;;2.47;;
25936;SDS011;13733;51.178;4.450;2022-07-23T15:09:06;4.75;;;2.90;;
25936;SDS011;13733;51.178;4.450;2022-07-23T15:11:32;4.45;;;3.17;;
25936;SDS011;13733;51.178;4.450;2022-07-23T15:14:06;6.60;;;3.40;;
25936;SDS011;13733;51.178;4.450;2022-07-23T15:16:33;4.55;;;2.83;;
25936;SDS011;13733;51.178;4.450;2022-07-23T15:18:59;4.45;;;2.80;;
25936;SDS011;13733;51.178;4.450;2022-07-23T15:21:27;8.10;;;2.80;;
25936;SDS011;13733;51.178;4.450;2022-07-23T15:23:54;9.38;;;3.15;;
25936;SDS011;13733;51.178;4.450;2022-07-23T15:26:24;5.85;;;3.35;;
25936;SDS011;13733;51.178;4.450;2022-07-23T15:28:54;3.35;;;3.05;;
25936;SDS011;13733;51.178;4.450;2022-07-23T15:31:20;4.97;;;3.15;;
25936;SDS011;13733;51.178;4.450;2022-07-23T15:33:46;3.85;;;3.13;;